createdAt,value
2023-03-23T15:59:23.205Z,0.50
2023-03-23T16:04:29.602Z,0.60
2023-03-23T16:09:33.040Z,0.40
2023-03-23T16:14:37.743Z,0.57
2023-03-23T16:19:41.274Z,0.70
2023-03-23T16:24:44.435Z,0.63
2023-03-23T16:30:03.144Z,0.50
2023-03-23T16:35:08.437Z,0.83
2023-03-23T16:40:14.435Z,0.90
2023-03-23T16:45:19.478Z,0.40
2023-03-23T16:50:23.411Z,0.80
2023-03-23T16:55:27.408Z,0.50
2023-03-23T17:00:32.688Z,0.70
2023-03-23T17:05:38.385Z,0.77
2023-03-23T17:10:43.802Z,0.70
2023-03-23T17:15:48.648Z,1.20
2023-03-23T17:20:54.309Z,0.93
2023-03-23T17:25:57.865Z,3.30
2023-03-23T17:31:03.084Z,3.03
2023-03-23T17:36:06.806Z,2.57
2023-03-23T17:41:11.590Z,0.80
2023-03-23T17:46:17.050Z,0.90
2023-03-23T17:51:20.667Z,0.63
2023-03-23T17:56:24.230Z,0.80
2023-03-23T18:01:29.001Z,1.27
2023-03-23T18:06:33.229Z,1.20
2023-03-23T18:11:36.382Z,0.67
2023-03-23T18:16:41.313Z,0.40
2023-03-23T18:21:45.951Z,1.60
2023-03-23T18:26:52.087Z,0.83
2023-03-23T18:31:56.919Z,0.70
2023-03-23T18:37:00.693Z,1.67
2023-03-23T18:42:03.915Z,0.80
2023-03-23T18:47:09.538Z,0.90
2023-03-23T18:52:12.965Z,2.30
2023-03-23T18:57:18.195Z,0.90
2023-03-23T19:02:23.902Z,1.60
2023-03-23T19:07:29.742Z,0.97
2023-03-23T19:12:34.147Z,1.00
2023-03-23T19:17:40.126Z,0.80
2023-03-23T19:22:43.486Z,1.87
2023-03-23T19:28:23.188Z,2.80
2023-03-23T19:33:13.254Z,1.10
2023-03-23T19:38:16.636Z,0.80
2023-03-23T19:43:21.355Z,1.07
2023-03-23T19:48:28.801Z,1.00
2023-03-23T19:53:32.174Z,1.23
2023-03-23T19:58:35.522Z,0.60
2023-03-23T20:03:41.495Z,1.00
2023-03-23T20:08:47.701Z,1.03
2023-03-23T20:13:51.764Z,1.00
2023-03-23T20:19:00.093Z,1.10
2023-03-23T20:24:04.104Z,0.80
2023-03-23T20:29:08.424Z,0.90
2023-03-23T20:34:17.145Z,0.80
2023-03-23T20:39:23.255Z,0.90
2023-03-23T20:44:31.267Z,0.80
2023-03-23T20:49:39.309Z,0.50
2023-03-23T20:54:45.009Z,0.80
2023-03-23T20:59:49.014Z,1.03
2023-03-23T21:04:54.475Z,0.90
2023-03-23T21:09:58.492Z,0.60
2023-03-23T21:15:02.619Z,0.80
2023-03-23T21:20:11.210Z,0.90
2023-03-23T21:25:16.410Z,1.00
2023-03-23T21:30:21.627Z,1.00
2023-03-23T21:35:26.872Z,0.90
2023-03-23T21:40:31.450Z,1.00
2023-03-23T21:45:35.511Z,1.13
2023-03-23T21:50:43.125Z,1.00
2023-03-23T21:55:51.239Z,1.10
2023-03-23T22:00:56.062Z,1.57
2023-03-23T22:06:10.572Z,1.60
2023-03-23T22:11:17.191Z,1.60
2023-03-23T22:16:22.649Z,1.60
2023-03-23T22:21:29.249Z,1.70
2023-03-23T22:26:32.536Z,1.67
2023-03-23T22:31:37.106Z,1.50
2023-03-23T22:36:42.438Z,1.50
2023-03-23T22:41:46.359Z,1.53
2023-03-23T22:46:50.623Z,1.40
2023-03-23T22:51:56.349Z,1.70
2023-03-23T22:56:59.956Z,1.43
2023-03-23T23:02:03.299Z,1.60
2023-03-23T23:07:12.882Z,1.43
2023-03-23T23:12:17.124Z,1.60
2023-03-23T23:17:20.422Z,1.83
2023-03-23T23:22:25.109Z,2.00
2023-03-23T23:27:28.421Z,2.20
2023-03-23T23:32:33.802Z,1.50
2023-03-23T23:37:39.207Z,2.27
2023-03-23T23:42:43.128Z,2.40
2023-03-23T23:47:47.284Z,2.57
2023-03-23T23:52:52.402Z,2.30
2023-03-23T23:57:56.204Z,1.80
